Torbali, Turkey
Current Conditions -  °F | °C
As of 4:20 PM on Friday 28 Nov 2014 (Local Time) from LTBJ Reporting Station
Clear Clear  
Wind Chill: 55°   Ceiling: Unl
Heat Index: 55°   Visibility: 6mi
Dew Point: 43°   Wind: 9mph
Humidity: 63%   Direction: 360°N
Pressure: 30.21"   Gusts: NA
Location:  38.17°N, 27.36°E
Report Text: LTBJ 281320Z 36008KT CAVOK 13/06 Q1023 NOSIG
Loading
Personal Weather Stations






























Interactive Weather Map New forecast layout! Learn more

10-Day Weather Forecast

Advertisements
Track Severe Weather on mobile